sensor_id;sensor_type;location;lat;lon;timestamp;P1;durP1;ratioP1;P2;durP2;ratioP2
75459;SDS011;64039;53.060;9.342;2024-03-02T00:00:04;15.60;;;7.35;;
75459;SDS011;64039;53.060;9.342;2024-03-02T00:02:42;15.48;;;7.65;;
75459;SDS011;64039;53.060;9.342;2024-03-02T00:05:11;14.20;;;7.55;;
75459;SDS011;64039;53.060;9.342;2024-03-02T00:07:37;12.88;;;8.02;;
75459;SDS011;64039;53.060;9.342;2024-03-02T00:10:09;14.63;;;7.75;;
75459;SDS011;64039;53.060;9.342;2024-03-02T00:12:37;12.95;;;7.25;;
75459;SDS011;64039;53.060;9.342;2024-03-02T00:15:23;12.88;;;7.57;;
75459;SDS011;64039;53.060;9.342;2024-03-02T00:18:10;13.18;;;7.60;;
75459;SDS011;64039;53.060;9.342;2024-03-02T00:20:37;13.68;;;7.88;;
75459;SDS011;64039;53.060;9.342;2024-03-02T00:23:03;11.25;;;7.10;;
75459;SDS011;64039;53.060;9.342;2024-03-02T00:25:37;13.40;;;7.25;;
75459;SDS011;64039;53.060;9.342;2024-03-02T00:28:25;14.05;;;7.68;;
75459;SDS011;64039;53.060;9.342;2024-03-02T00:31:03;13.57;;;7.38;;
75459;SDS011;64039;53.060;9.342;2024-03-02T00:33:34;12.05;;;7.20;;
75459;SDS011;64039;53.060;9.342;2024-03-02T00:36:05;14.88;;;8.52;;
75459;SDS011;64039;53.060;9.342;2024-03-02T00:38:32;12.98;;;7.80;;
75459;SDS011;64039;53.060;9.342;2024-03-02T00:40:59;11.85;;;7.43;;
75459;SDS011;64039;53.060;9.342;2024-03-02T00:43:41;10.93;;;6.72;;
75459;SDS011;64039;53.060;9.342;2024-03-02T00:46:09;12.15;;;7.55;;
75459;SDS011;64039;53.060;9.342;2024-03-02T00:48:39;14.52;;;7.65;;
75459;SDS011;64039;53.060;9.342;2024-03-02T00:53:36;12.40;;;7.05;;
75459;SDS011;64039;53.060;9.342;2024-03-02T00:56:02;13.70;;;7.53;;
75459;SDS011;64039;53.060;9.342;2024-03-02T00:58:28;10.80;;;7.25;;
75459;SDS011;64039;53.060;9.342;2024-03-02T01:00:53;15.07;;;7.50;;
75459;SDS011;64039;53.060;9.342;2024-03-02T01:03:19;13.27;;;7.65;;
75459;SDS011;64039;53.060;9.342;2024-03-02T01:05:44;13.48;;;7.53;;
75459;SDS011;64039;53.060;9.342;2024-03-02T01:08:10;13.90;;;7.80;;
75459;SDS011;64039;53.060;9.342;2024-03-02T01:10:36;13.23;;;8.07;;
75459;SDS011;64039;53.060;9.342;2024-03-02T01:13:01;14.60;;;8.52;;
75459;SDS011;64039;53.060;9.342;2024-03-02T01:15:27;13.20;;;7.45;;
75459;SDS011;64039;53.060;9.342;2024-03-02T01:17:53;13.60;;;7.80;;
75459;SDS011;64039;53.060;9.342;2024-03-02T01:20:18;11.80;;;7.35;;
75459;SDS011;64039;53.060;9.342;2024-03-02T01:22:43;13.38;;;7.95;;
75459;SDS011;64039;53.060;9.342;2024-03-02T01:25:09;14.27;;;8.13;;
75459;SDS011;64039;53.060;9.342;2024-03-02T01:27:35;14.55;;;8.18;;
75459;SDS011;64039;53.060;9.342;2024-03-02T01:30:00;14.13;;;7.82;;
75459;SDS011;64039;53.060;9.342;2024-03-02T01:32:26;14.18;;;8.27;;
75459;SDS011;64039;53.060;9.342;2024-03-02T01:34:52;13.27;;;7.82;;
75459;SDS011;64039;53.060;9.342;2024-03-02T01:37:17;13.48;;;8.02;;
75459;SDS011;64039;53.060;9.342;2024-03-02T01:39:42;15.10;;;8.35;;
75459;SDS011;64039;53.060;9.342;2024-03-02T01:42:08;15.07;;;8.38;;
75459;SDS011;64039;53.060;9.342;2024-03-02T01:44:35;15.23;;;7.68;;
75459;SDS011;64039;53.060;9.342;2024-03-02T01:47:01;12.27;;;7.43;;
75459;SDS011;64039;53.060;9.342;2024-03-02T01:49:27;12.60;;;7.80;;
75459;SDS011;64039;53.060;9.342;2024-03-02T01:51:52;16.60;;;8.63;;
75459;SDS011;64039;53.060;9.342;2024-03-02T01:54:17;13.88;;;8.15;;
75459;SDS011;64039;53.060;9.342;2024-03-02T01:56:43;13.45;;;7.78;;
75459;SDS011;64039;53.060;9.342;2024-03-02T01:59:09;13.35;;;8.55;;
75459;SDS011;64039;53.060;9.342;2024-03-02T02:01:34;15.60;;;8.77;;
75459;SDS011;64039;53.060;9.342;2024-03-02T02:04:00;14.13;;;8.25;;
75459;SDS011;64039;53.060;9.342;2024-03-02T02:06:25;15.50;;;8.95;;
75459;SDS011;64039;53.060;9.342;2024-03-02T02:08:51;15.55;;;8.40;;
75459;SDS011;64039;53.060;9.342;2024-03-02T02:11:17;13.65;;;8.90;;
75459;SDS011;64039;53.060;9.342;2024-03-02T02:13:42;16.10;;;9.02;;
75459;SDS011;64039;53.060;9.342;2024-03-02T02:16:08;14.38;;;8.65;;
75459;SDS011;64039;53.060;9.342;2024-03-02T02:18:34;14.70;;;8.30;;
75459;SDS011;64039;53.060;9.342;2024-03-02T02:21:01;16.15;;;8.55;;
75459;SDS011;64039;53.060;9.342;2024-03-02T02:23:26;15.02;;;8.73;;
75459;SDS011;64039;53.060;9.342;2024-03-02T02:25:52;15.27;;;8.50;;
75459;SDS011;64039;53.060;9.342;2024-03-02T02:28:17;14.77;;;9.00;;
75459;SDS011;64039;53.060;9.342;2024-03-02T02:30:43;13.52;;;8.20;;
75459;SDS011;64039;53.060;9.342;2024-03-02T02:33:08;13.88;;;8.43;;
75459;SDS011;64039;53.060;9.342;2024-03-02T02:35:34;15.23;;;8.70;;
75459;SDS011;64039;53.060;9.342;2024-03-02T02:38:00;14.93;;;8.55;;
75459;SDS011;64039;53.060;9.342;2024-03-02T02:40:26;14.02;;;8.48;;
75459;SDS011;64039;53.060;9.342;2024-03-02T02:42:51;17.92;;;9.55;;
75459;SDS011;64039;53.060;9.342;2024-03-02T02:45:17;15.48;;;8.93;;
75459;SDS011;64039;53.060;9.342;2024-03-02T02:47:43;13.95;;;8.55;;
75459;SDS011;64039;53.060;9.342;2024-03-02T02:50:09;18.02;;;9.07;;
75459;SDS011;64039;53.060;9.342;2024-03-02T02:52:37;15.23;;;8.68;;
75459;SDS011;64039;53.060;9.342;2024-03-02T02:55:05;14.23;;;8.85;;
75459;SDS011;64039;53.060;9.342;2024-03-02T02:57:32;12.70;;;8.25;;
75459;SDS011;64039;53.060;9.342;2024-03-02T03:00:22;15.23;;;9.10;;
75459;SDS011;64039;53.060;9.342;2024-03-02T03:02:48;14.02;;;8.13;;
75459;SDS011;64039;53.060;9.342;2024-03-02T03:05:15;15.55;;;9.25;;
75459;SDS011;64039;53.060;9.342;2024-03-02T03:07:41;16.65;;;9.73;;
75459;SDS011;64039;53.060;9.342;2024-03-02T03:10:09;13.57;;;8.60;;
75459;SDS011;64039;53.060;9.342;2024-03-02T03:12:34;15.65;;;9.07;;
75459;SDS011;64039;53.060;9.342;2024-03-02T03:15:01;15.95;;;9.52;;
75459;SDS011;64039;53.060;9.342;2024-03-02T03:17:27;15.82;;;8.88;;
75459;SDS011;64039;53.060;9.342;2024-03-02T03:19:52;15.43;;;8.95;;
75459;SDS011;64039;53.060;9.342;2024-03-02T03:22:18;15.25;;;8.18;;
75459;SDS011;64039;53.060;9.342;2024-03-02T03:24:44;16.60;;;9.05;;
75459;SDS011;64039;53.060;9.342;2024-03-02T03:27:09;15.23;;;8.80;;
75459;SDS011;64039;53.060;9.342;2024-03-02T03:29:36;13.77;;;8.57;;
75459;SDS011;64039;53.060;9.342;2024-03-02T03:32:02;15.15;;;9.30;;
75459;SDS011;64039;53.060;9.342;2024-03-02T03:34:32;14.55;;;8.57;;
75459;SDS011;64039;53.060;9.342;2024-03-02T03:36:57;13.60;;;8.75;;
75459;SDS011;64039;53.060;9.342;2024-03-02T03:39:23;16.50;;;9.38;;
75459;SDS011;64039;53.060;9.342;2024-03-02T03:41:48;13.52;;;8.40;;
75459;SDS011;64039;53.060;9.342;2024-03-02T03:44:14;15.25;;;8.88;;
75459;SDS011;64039;53.060;9.342;2024-03-02T03:46:39;13.85;;;8.73;;
75459;SDS011;64039;53.060;9.342;2024-03-02T03:49:05;16.05;;;8.15;;
75459;SDS011;64039;53.060;9.342;2024-03-02T03:51:30;14.43;;;8.45;;
75459;SDS011;64039;53.060;9.342;2024-03-02T03:53:55;16.73;;;8.65;;
75459;SDS011;64039;53.060;9.342;2024-03-02T03:56:21;13.95;;;8.48;;
75459;SDS011;64039;53.060;9.342;2024-03-02T03:58:46;14.57;;;8.40;;
75459;SDS011;64039;53.060;9.342;2024-03-02T04:01:12;13.75;;;8.15;;
75459;SDS011;64039;53.060;9.342;2024-03-02T04:03:38;15.13;;;8.52;;
75459;SDS011;64039;53.060;9.342;2024-03-02T04:06:03;13.45;;;8.32;;
75459;SDS011;64039;53.060;9.342;2024-03-02T04:08:29;14.55;;;8.60;;
75459;SDS011;64039;53.060;9.342;2024-03-02T04:10:54;14.05;;;8.50;;
75459;SDS011;64039;53.060;9.342;2024-03-02T04:13:20;13.02;;;8.40;;
75459;SDS011;64039;53.060;9.342;2024-03-02T04:15:45;12.60;;;8.32;;
75459;SDS011;64039;53.060;9.342;2024-03-02T04:18:10;14.27;;;8.10;;
75459;SDS011;64039;53.060;9.342;2024-03-02T04:20:36;14.10;;;8.57;;
75459;SDS011;64039;53.060;9.342;2024-03-02T04:23:02;12.57;;;8.18;;
75459;SDS011;64039;53.060;9.342;2024-03-02T04:25:28;13.68;;;8.65;;
75459;SDS011;64039;53.060;9.342;2024-03-02T04:27:53;14.18;;;8.48;;
75459;SDS011;64039;53.060;9.342;2024-03-02T04:30:18;13.68;;;7.95;;
75459;SDS011;64039;53.060;9.342;2024-03-02T04:32:44;14.48;;;8.15;;
75459;SDS011;64039;53.060;9.342;2024-03-02T04:35:12;14.38;;;8.35;;
75459;SDS011;64039;53.060;9.342;2024-03-02T04:37:38;13.73;;;9.07;;
75459;SDS011;64039;53.060;9.342;2024-03-02T04:40:03;16.17;;;9.30;;
75459;SDS011;64039;53.060;9.342;2024-03-02T04:42:33;13.55;;;8.40;;
75459;SDS011;64039;53.060;9.342;2024-03-02T04:44:59;25.25;;;14.18;;
75459;SDS011;64039;53.060;9.342;2024-03-02T04:47:24;17.63;;;10.80;;
75459;SDS011;64039;53.060;9.342;2024-03-02T04:49:50;17.63;;;9.27;;
75459;SDS011;64039;53.060;9.342;2024-03-02T04:52:15;14.75;;;8.65;;
75459;SDS011;64039;53.060;9.342;2024-03-02T04:54:42;14.80;;;9.10;;
75459;SDS011;64039;53.060;9.342;2024-03-02T04:57:26;14.57;;;8.55;;
75459;SDS011;64039;53.060;9.342;2024-03-02T04:59:51;15.25;;;8.52;;
75459;SDS011;64039;53.060;9.342;2024-03-02T05:02:17;14.52;;;9.13;;
75459;SDS011;64039;53.060;9.342;2024-03-02T05:04:42;15.35;;;9.32;;
75459;SDS011;64039;53.060;9.342;2024-03-02T05:07:08;14.10;;;8.70;;
75459;SDS011;64039;53.060;9.342;2024-03-02T05:09:33;17.73;;;9.32;;
75459;SDS011;64039;53.060;9.342;2024-03-02T05:11:59;16.88;;;9.32;;
75459;SDS011;64039;53.060;9.342;2024-03-02T05:14:40;15.68;;;9.18;;
75459;SDS011;64039;53.060;9.342;2024-03-02T05:17:06;14.13;;;8.73;;
75459;SDS011;64039;53.060;9.342;2024-03-02T05:19:31;18.35;;;9.07;;
75459;SDS011;64039;53.060;9.342;2024-03-02T05:21:57;17.48;;;9.27;;
75459;SDS011;64039;53.060;9.342;2024-03-02T05:24:22;17.20;;;9.48;;
75459;SDS011;64039;53.060;9.342;2024-03-02T05:26:48;18.77;;;9.88;;
75459;SDS011;64039;53.060;9.342;2024-03-02T05:29:14;14.65;;;9.30;;
75459;SDS011;64039;53.060;9.342;2024-03-02T05:31:39;18.35;;;10.15;;
75459;SDS011;64039;53.060;9.342;2024-03-02T05:34:05;17.25;;;10.25;;
75459;SDS011;64039;53.060;9.342;2024-03-02T05:36:31;18.58;;;10.63;;
75459;SDS011;64039;53.060;9.342;2024-03-02T05:38:56;20.95;;;11.00;;
75459;SDS011;64039;53.060;9.342;2024-03-02T05:41:22;23.23;;;12.68;;
75459;SDS011;64039;53.060;9.342;2024-03-02T05:43:47;22.02;;;11.23;;
75459;SDS011;64039;53.060;9.342;2024-03-02T05:46:13;19.15;;;10.40;;
75459;SDS011;64039;53.060;9.342;2024-03-02T05:48:38;19.38;;;10.65;;
75459;SDS011;64039;53.060;9.342;2024-03-02T05:51:04;17.10;;;10.07;;
75459;SDS011;64039;53.060;9.342;2024-03-02T05:53:29;18.63;;;10.82;;
75459;SDS011;64039;53.060;9.342;2024-03-02T05:55:54;17.25;;;10.27;;
75459;SDS011;64039;53.060;9.342;2024-03-02T05:58:21;18.02;;;10.30;;
75459;SDS011;64039;53.060;9.342;2024-03-02T06:01:08;18.05;;;9.80;;
75459;SDS011;64039;53.060;9.342;2024-03-02T06:03:33;19.13;;;10.65;;
75459;SDS011;64039;53.060;9.342;2024-03-02T06:06:00;18.42;;;10.30;;
75459;SDS011;64039;53.060;9.342;2024-03-02T06:08:25;18.25;;;10.20;;
75459;SDS011;64039;53.060;9.342;2024-03-02T06:10:51;19.25;;;10.43;;
75459;SDS011;64039;53.060;9.342;2024-03-02T06:13:16;19.85;;;11.10;;
75459;SDS011;64039;53.060;9.342;2024-03-02T06:15:42;17.45;;;10.13;;
75459;SDS011;64039;53.060;9.342;2024-03-02T06:18:07;19.83;;;10.95;;
75459;SDS011;64039;53.060;9.342;2024-03-02T06:20:33;18.00;;;10.82;;
75459;SDS011;64039;53.060;9.342;2024-03-02T06:22:58;19.20;;;10.90;;
75459;SDS011;64039;53.060;9.342;2024-03-02T06:25:24;16.48;;;9.70;;
75459;SDS011;64039;53.060;9.342;2024-03-02T06:27:49;18.98;;;10.30;;
75459;SDS011;64039;53.060;9.342;2024-03-02T06:30:15;20.80;;;10.63;;
75459;SDS011;64039;53.060;9.342;2024-03-02T06:32:40;18.00;;;10.82;;
75459;SDS011;64039;53.060;9.342;2024-03-02T06:35:06;19.75;;;11.00;;
75459;SDS011;64039;53.060;9.342;2024-03-02T06:37:35;21.15;;;10.60;;
75459;SDS011;64039;53.060;9.342;2024-03-02T06:40:01;19.67;;;11.20;;
75459;SDS011;64039;53.060;9.342;2024-03-02T06:42:28;22.42;;;11.80;;
75459;SDS011;64039;53.060;9.342;2024-03-02T06:44:58;22.10;;;12.55;;
75459;SDS011;64039;53.060;9.342;2024-03-02T06:47:24;20.80;;;11.45;;
75459;SDS011;64039;53.060;9.342;2024-03-02T06:49:49;20.90;;;11.10;;
75459;SDS011;64039;53.060;9.342;2024-03-02T06:52:15;17.50;;;10.48;;
75459;SDS011;64039;53.060;9.342;2024-03-02T06:54:40;19.75;;;11.02;;
75459;SDS011;64039;53.060;9.342;2024-03-02T06:57:05;20.15;;;10.77;;
75459;SDS011;64039;53.060;9.342;2024-03-02T06:59:31;19.60;;;10.82;;
75459;SDS011;64039;53.060;9.342;2024-03-02T07:01:58;19.63;;;11.13;;
75459;SDS011;64039;53.060;9.342;2024-03-02T07:04:24;18.42;;;10.57;;
75459;SDS011;64039;53.060;9.342;2024-03-02T07:06:49;20.15;;;10.35;;
75459;SDS011;64039;53.060;9.342;2024-03-02T07:09:16;18.55;;;10.50;;
75459;SDS011;64039;53.060;9.342;2024-03-02T07:11:42;23.40;;;11.80;;
75459;SDS011;64039;53.060;9.342;2024-03-02T07:14:07;21.83;;;10.88;;
75459;SDS011;64039;53.060;9.342;2024-03-02T07:16:32;22.35;;;11.43;;
75459;SDS011;64039;53.060;9.342;2024-03-02T07:18:59;23.88;;;11.63;;
75459;SDS011;64039;53.060;9.342;2024-03-02T07:21:26;20.48;;;10.60;;
75459;SDS011;64039;53.060;9.342;2024-03-02T07:23:52;20.10;;;10.88;;
75459;SDS011;64039;53.060;9.342;2024-03-02T07:26:18;18.42;;;10.65;;
75459;SDS011;64039;53.060;9.342;2024-03-02T07:28:44;17.65;;;10.48;;
75459;SDS011;64039;53.060;9.342;2024-03-02T07:31:11;18.35;;;10.70;;
75459;SDS011;64039;53.060;9.342;2024-03-02T07:33:36;18.27;;;10.75;;
75459;SDS011;64039;53.060;9.342;2024-03-02T07:36:02;20.42;;;11.63;;
75459;SDS011;64039;53.060;9.342;2024-03-02T07:38:28;21.27;;;11.63;;
75459;SDS011;64039;53.060;9.342;2024-03-02T07:40:54;20.50;;;12.00;;
75459;SDS011;64039;53.060;9.342;2024-03-02T07:43:20;23.20;;;12.75;;
75459;SDS011;64039;53.060;9.342;2024-03-02T07:45:47;20.60;;;11.10;;
75459;SDS011;64039;53.060;9.342;2024-03-02T07:48:13;20.85;;;11.80;;
75459;SDS011;64039;53.060;9.342;2024-03-02T07:50:39;20.80;;;11.18;;
75459;SDS011;64039;53.060;9.342;2024-03-02T07:53:05;24.23;;;12.05;;
75459;SDS011;64039;53.060;9.342;2024-03-02T07:55:31;22.92;;;11.90;;
75459;SDS011;64039;53.060;9.342;2024-03-02T07:57:57;26.27;;;12.30;;
75459;SDS011;64039;53.060;9.342;2024-03-02T08:00:22;23.42;;;13.23;;
75459;SDS011;64039;53.060;9.342;2024-03-02T08:02:49;22.52;;;13.20;;
75459;SDS011;64039;53.060;9.342;2024-03-02T08:05:18;24.90;;;12.60;;
75459;SDS011;64039;53.060;9.342;2024-03-02T08:07:45;22.02;;;12.30;;
75459;SDS011;64039;53.060;9.342;2024-03-02T08:10:11;24.92;;;13.20;;
75459;SDS011;64039;53.060;9.342;2024-03-02T08:12:37;29.95;;;15.25;;
75459;SDS011;64039;53.060;9.342;2024-03-02T08:15:03;28.48;;;13.85;;
75459;SDS011;64039;53.060;9.342;2024-03-02T08:17:29;28.77;;;14.15;;
75459;SDS011;64039;53.060;9.342;2024-03-02T08:19:55;29.05;;;17.20;;
75459;SDS011;64039;53.060;9.342;2024-03-02T08:22:21;33.45;;;16.92;;
75459;SDS011;64039;53.060;9.342;2024-03-02T08:24:46;23.25;;;11.55;;
75459;SDS011;64039;53.060;9.342;2024-03-02T08:27:12;22.13;;;11.90;;
75459;SDS011;64039;53.060;9.342;2024-03-02T08:29:37;24.00;;;12.93;;
75459;SDS011;64039;53.060;9.342;2024-03-02T08:32:05;19.67;;;10.85;;
75459;SDS011;64039;53.060;9.342;2024-03-02T08:34:31;21.75;;;11.80;;
75459;SDS011;64039;53.060;9.342;2024-03-02T08:36:56;23.27;;;12.02;;
75459;SDS011;64039;53.060;9.342;2024-03-02T08:39:22;22.48;;;13.07;;
75459;SDS011;64039;53.060;9.342;2024-03-02T08:41:47;23.48;;;11.80;;
75459;SDS011;64039;53.060;9.342;2024-03-02T08:44:13;21.92;;;12.23;;
75459;SDS011;64039;53.060;9.342;2024-03-02T08:46:39;19.80;;;10.95;;
75459;SDS011;64039;53.060;9.342;2024-03-02T08:49:05;21.45;;;10.90;;
75459;SDS011;64039;53.060;9.342;2024-03-02T08:51:32;18.60;;;10.27;;
75459;SDS011;64039;53.060;9.342;2024-03-02T08:53:57;18.27;;;10.18;;
75459;SDS011;64039;53.060;9.342;2024-03-02T08:56:23;16.67;;;9.90;;
75459;SDS011;64039;53.060;9.342;2024-03-02T08:58:49;17.90;;;9.93;;
75459;SDS011;64039;53.060;9.342;2024-03-02T09:01:15;21.25;;;11.40;;
75459;SDS011;64039;53.060;9.342;2024-03-02T09:03:42;21.20;;;11.75;;
75459;SDS011;64039;53.060;9.342;2024-03-02T09:06:09;19.15;;;10.82;;
75459;SDS011;64039;53.060;9.342;2024-03-02T09:08:35;29.23;;;15.48;;
75459;SDS011;64039;53.060;9.342;2024-03-02T09:11:02;22.23;;;11.20;;
75459;SDS011;64039;53.060;9.342;2024-03-02T09:13:28;24.40;;;12.23;;
75459;SDS011;64039;53.060;9.342;2024-03-02T09:15:54;22.00;;;11.77;;
75459;SDS011;64039;53.060;9.342;2024-03-02T09:18:19;20.35;;;10.98;;
75459;SDS011;64039;53.060;9.342;2024-03-02T09:20:45;21.20;;;11.52;;
75459;SDS011;64039;53.060;9.342;2024-03-02T09:23:11;21.17;;;11.10;;
75459;SDS011;64039;53.060;9.342;2024-03-02T09:25:36;17.77;;;10.57;;
75459;SDS011;64039;53.060;9.342;2024-03-02T09:28:02;18.50;;;11.07;;
75459;SDS011;64039;53.060;9.342;2024-03-02T09:30:28;18.63;;;10.93;;
75459;SDS011;64039;53.060;9.342;2024-03-02T09:32:53;20.38;;;11.35;;
75459;SDS011;64039;53.060;9.342;2024-03-02T09:35:19;20.85;;;11.73;;
75459;SDS011;64039;53.060;9.342;2024-03-02T09:37:45;18.30;;;10.63;;
75459;SDS011;64039;53.060;9.342;2024-03-02T09:40:10;19.27;;;10.55;;
75459;SDS011;64039;53.060;9.342;2024-03-02T09:42:37;23.52;;;11.13;;
75459;SDS011;64039;53.060;9.342;2024-03-02T09:45:02;20.27;;;11.07;;
75459;SDS011;64039;53.060;9.342;2024-03-02T09:47:30;20.05;;;10.95;;
75459;SDS011;64039;53.060;9.342;2024-03-02T09:49:55;21.02;;;11.23;;
75459;SDS011;64039;53.060;9.342;2024-03-02T09:52:22;17.05;;;10.32;;
75459;SDS011;64039;53.060;9.342;2024-03-02T09:54:48;20.15;;;11.60;;
75459;SDS011;64039;53.060;9.342;2024-03-02T09:57:14;27.08;;;15.18;;
75459;SDS011;64039;53.060;9.342;2024-03-02T09:59:39;35.40;;;17.00;;
75459;SDS011;64039;53.060;9.342;2024-03-02T10:02:05;25.05;;;14.30;;
75459;SDS011;64039;53.060;9.342;2024-03-02T10:04:32;23.15;;;12.90;;
75459;SDS011;64039;53.060;9.342;2024-03-02T10:07:11;17.50;;;10.02;;
75459;SDS011;64039;53.060;9.342;2024-03-02T10:09:37;17.60;;;9.95;;
75459;SDS011;64039;53.060;9.342;2024-03-02T10:12:09;18.73;;;10.57;;
75459;SDS011;64039;53.060;9.342;2024-03-02T10:14:36;17.27;;;9.95;;
75459;SDS011;64039;53.060;9.342;2024-03-02T10:17:03;20.00;;;9.68;;
75459;SDS011;64039;53.060;9.342;2024-03-02T10:19:29;18.55;;;10.30;;
75459;SDS011;64039;53.060;9.342;2024-03-02T10:21:59;16.23;;;9.40;;
75459;SDS011;64039;53.060;9.342;2024-03-02T10:24:26;16.75;;;9.18;;
75459;SDS011;64039;53.060;9.342;2024-03-02T10:26:52;16.58;;;9.30;;
75459;SDS011;64039;53.060;9.342;2024-03-02T10:29:18;19.30;;;10.60;;
75459;SDS011;64039;53.060;9.342;2024-03-02T10:31:44;16.52;;;9.82;;
75459;SDS011;64039;53.060;9.342;2024-03-02T10:34:11;16.08;;;9.45;;
75459;SDS011;64039;53.060;9.342;2024-03-02T10:36:38;21.70;;;9.75;;
75459;SDS011;64039;53.060;9.342;2024-03-02T10:39:06;15.50;;;8.63;;
75459;SDS011;64039;53.060;9.342;2024-03-02T10:41:36;19.85;;;8.75;;
75459;SDS011;64039;53.060;9.342;2024-03-02T10:44:03;14.48;;;8.50;;
75459;SDS011;64039;53.060;9.342;2024-03-02T10:46:39;18.05;;;9.23;;
75459;SDS011;64039;53.060;9.342;2024-03-02T10:49:05;16.00;;;9.50;;
75459;SDS011;64039;53.060;9.342;2024-03-02T10:51:32;16.55;;;9.07;;
75459;SDS011;64039;53.060;9.342;2024-03-02T10:53:59;15.95;;;9.88;;
75459;SDS011;64039;53.060;9.342;2024-03-02T10:56:32;14.93;;;8.57;;
75459;SDS011;64039;53.060;9.342;2024-03-02T10:59:05;14.90;;;8.15;;
75459;SDS011;64039;53.060;9.342;2024-03-02T11:01:39;13.88;;;7.90;;
75459;SDS011;64039;53.060;9.342;2024-03-02T11:04:08;14.70;;;7.88;;
75459;SDS011;64039;53.060;9.342;2024-03-02T11:06:36;14.23;;;8.55;;
75459;SDS011;64039;53.060;9.342;2024-03-02T11:09:07;14.30;;;8.10;;
75459;SDS011;64039;53.060;9.342;2024-03-02T11:11:40;15.02;;;7.95;;
75459;SDS011;64039;53.060;9.342;2024-03-02T11:14:10;13.52;;;8.05;;
75459;SDS011;64039;53.060;9.342;2024-03-02T11:16:41;14.57;;;8.13;;
75459;SDS011;64039;53.060;9.342;2024-03-02T11:19:11;13.93;;;7.80;;
75459;SDS011;64039;53.060;9.342;2024-03-02T11:21:39;14.45;;;7.95;;
75459;SDS011;64039;53.060;9.342;2024-03-02T11:26:50;15.70;;;7.32;;
75459;SDS011;64039;53.060;9.342;2024-03-02T11:32:00;11.95;;;6.88;;
75459;SDS011;64039;53.060;9.342;2024-03-02T11:34:36;13.20;;;6.85;;
75459;SDS011;64039;53.060;9.342;2024-03-02T11:37:05;11.50;;;6.68;;
75459;SDS011;64039;53.060;9.342;2024-03-02T11:39:31;10.63;;;6.47;;
75459;SDS011;64039;53.060;9.342;2024-03-02T11:41:57;11.32;;;5.90;;
75459;SDS011;64039;53.060;9.342;2024-03-02T11:44:26;9.98;;;5.93;;
75459;SDS011;64039;53.060;9.342;2024-03-02T11:47:01;11.90;;;7.05;;
75459;SDS011;64039;53.060;9.342;2024-03-02T11:49:39;12.02;;;6.93;;
75459;SDS011;64039;53.060;9.342;2024-03-02T11:52:06;9.80;;;5.55;;
75459;SDS011;64039;53.060;9.342;2024-03-02T11:54:33;9.73;;;5.63;;
75459;SDS011;64039;53.060;9.342;2024-03-02T11:57:03;10.77;;;5.30;;
75459;SDS011;64039;53.060;9.342;2024-03-02T11:59:29;9.65;;;5.32;;
75459;SDS011;64039;53.060;9.342;2024-03-02T12:01:58;9.93;;;6.10;;
75459;SDS011;64039;53.060;9.342;2024-03-02T12:04:25;11.07;;;5.50;;
75459;SDS011;64039;53.060;9.342;2024-03-02T12:06:55;8.13;;;5.15;;
75459;SDS011;64039;53.060;9.342;2024-03-02T12:09:21;11.27;;;6.30;;
75459;SDS011;64039;53.060;9.342;2024-03-02T12:11:47;10.75;;;6.30;;
75459;SDS011;64039;53.060;9.342;2024-03-02T12:14:12;11.88;;;6.53;;
75459;SDS011;64039;53.060;9.342;2024-03-02T12:16:38;10.10;;;5.90;;
75459;SDS011;64039;53.060;9.342;2024-03-02T12:19:05;11.60;;;6.28;;
75459;SDS011;64039;53.060;9.342;2024-03-02T12:21:31;11.85;;;6.03;;
75459;SDS011;64039;53.060;9.342;2024-03-02T12:23:57;11.43;;;6.10;;
75459;SDS011;64039;53.060;9.342;2024-03-02T12:26:22;10.68;;;5.85;;
75459;SDS011;64039;53.060;9.342;2024-03-02T12:28:48;10.35;;;5.57;;
75459;SDS011;64039;53.060;9.342;2024-03-02T12:31:14;10.07;;;5.93;;
75459;SDS011;64039;53.060;9.342;2024-03-02T12:33:40;8.85;;;5.70;;
75459;SDS011;64039;53.060;9.342;2024-03-02T12:36:09;9.77;;;6.03;;
75459;SDS011;64039;53.060;9.342;2024-03-02T12:38:37;11.70;;;6.90;;
75459;SDS011;64039;53.060;9.342;2024-03-02T12:41:03;12.27;;;6.40;;
75459;SDS011;64039;53.060;9.342;2024-03-02T12:43:30;9.32;;;5.40;;
75459;SDS011;64039;53.060;9.342;2024-03-02T12:45:59;10.50;;;6.25;;
75459;SDS011;64039;53.060;9.342;2024-03-02T12:48:25;11.27;;;6.45;;
75459;SDS011;64039;53.060;9.342;2024-03-02T12:50:50;21.38;;;12.23;;
75459;SDS011;64039;53.060;9.342;2024-03-02T12:53:16;10.38;;;5.82;;
75459;SDS011;64039;53.060;9.342;2024-03-02T12:55:42;9.23;;;5.50;;
75459;SDS011;64039;53.060;9.342;2024-03-02T12:58:16;9.70;;;5.97;;
75459;SDS011;64039;53.060;9.342;2024-03-02T13:00:44;11.93;;;5.68;;
75459;SDS011;64039;53.060;9.342;2024-03-02T13:03:10;13.23;;;6.85;;
75459;SDS011;64039;53.060;9.342;2024-03-02T13:05:36;9.32;;;5.57;;
75459;SDS011;64039;53.060;9.342;2024-03-02T13:08:02;10.27;;;5.70;;
75459;SDS011;64039;53.060;9.342;2024-03-02T13:10:29;9.73;;;5.30;;
75459;SDS011;64039;53.060;9.342;2024-03-02T13:12:55;8.85;;;5.40;;
75459;SDS011;64039;53.060;9.342;2024-03-02T13:15:21;8.55;;;4.90;;
75459;SDS011;64039;53.060;9.342;2024-03-02T13:17:47;9.30;;;5.13;;
75459;SDS011;64039;53.060;9.342;2024-03-02T13:20:14;9.40;;;4.85;;
75459;SDS011;64039;53.060;9.342;2024-03-02T13:22:40;6.85;;;4.50;;
75459;SDS011;64039;53.060;9.342;2024-03-02T13:25:05;6.82;;;4.43;;
75459;SDS011;64039;53.060;9.342;2024-03-02T13:27:33;8.77;;;4.78;;
75459;SDS011;64039;53.060;9.342;2024-03-02T13:29:58;7.43;;;4.40;;
75459;SDS011;64039;53.060;9.342;2024-03-02T13:32:24;8.60;;;5.00;;
75459;SDS011;64039;53.060;9.342;2024-03-02T13:34:50;8.00;;;4.60;;
75459;SDS011;64039;53.060;9.342;2024-03-02T13:37:16;7.65;;;4.13;;
75459;SDS011;64039;53.060;9.342;2024-03-02T13:39:42;5.45;;;3.35;;
75459;SDS011;64039;53.060;9.342;2024-03-02T13:42:08;7.57;;;3.97;;
75459;SDS011;64039;53.060;9.342;2024-03-02T13:44:34;7.50;;;3.60;;
75459;SDS011;64039;53.060;9.342;2024-03-02T13:47:00;5.43;;;3.42;;
75459;SDS011;64039;53.060;9.342;2024-03-02T13:49:26;6.75;;;4.05;;
75459;SDS011;64039;53.060;9.342;2024-03-02T13:52:02;6.72;;;4.15;;
75459;SDS011;64039;53.060;9.342;2024-03-02T13:54:36;6.57;;;4.03;;
75459;SDS011;64039;53.060;9.342;2024-03-02T13:57:03;8.52;;;3.83;;
75459;SDS011;64039;53.060;9.342;2024-03-02T13:59:29;8.15;;;3.55;;
75459;SDS011;64039;53.060;9.342;2024-03-02T14:01:54;5.78;;;3.17;;
75459;SDS011;64039;53.060;9.342;2024-03-02T14:04:20;7.07;;;3.65;;
75459;SDS011;64039;53.060;9.342;2024-03-02T14:06:45;5.75;;;3.50;;
75459;SDS011;64039;53.060;9.342;2024-03-02T14:09:11;5.68;;;3.25;;
75459;SDS011;64039;53.060;9.342;2024-03-02T14:11:36;6.75;;;3.17;;
75459;SDS011;64039;53.060;9.342;2024-03-02T14:14:02;5.47;;;2.88;;
75459;SDS011;64039;53.060;9.342;2024-03-02T14:16:28;5.93;;;3.20;;
75459;SDS011;64039;53.060;9.342;2024-03-02T14:18:53;4.80;;;3.22;;
75459;SDS011;64039;53.060;9.342;2024-03-02T14:21:19;5.25;;;2.85;;
75459;SDS011;64039;53.060;9.342;2024-03-02T14:23:44;5.25;;;2.88;;
75459;SDS011;64039;53.060;9.342;2024-03-02T14:26:10;4.20;;;2.50;;
75459;SDS011;64039;53.060;9.342;2024-03-02T14:28:35;5.70;;;2.70;;
75459;SDS011;64039;53.060;9.342;2024-03-02T14:31:01;5.15;;;2.72;;
75459;SDS011;64039;53.060;9.342;2024-03-02T14:33:27;5.07;;;2.80;;
75459;SDS011;64039;53.060;9.342;2024-03-02T14:35:53;5.18;;;2.72;;